createdAt,value
2023-05-14T00:01:10.281Z,9.86
2023-05-14T00:03:41.510Z,9.84
2023-05-14T00:06:09.191Z,9.85
2023-05-14T00:08:36.313Z,9.83
2023-05-14T00:11:03.090Z,9.83
2023-05-14T00:13:29.943Z,9.87
2023-05-14T00:15:56.909Z,9.86
2023-05-14T00:18:23.807Z,9.90
2023-05-14T00:20:54.922Z,9.87
2023-05-14T00:23:22.769Z,9.80
2023-05-14T00:25:50.240Z,9.76
2023-05-14T00:28:17.085Z,9.69
2023-05-14T00:30:44.805Z,9.70
2023-05-14T00:33:11.636Z,9.70
2023-05-14T00:35:38.757Z,9.66
2023-05-14T00:38:06.023Z,9.63
2023-05-14T00:40:33.049Z,9.63
2023-05-14T00:43:00.060Z,9.63
2023-05-14T00:45:26.973Z,9.60
2023-05-14T00:47:54.314Z,9.54
2023-05-14T00:50:21.433Z,9.44
2023-05-14T00:52:48.433Z,9.38
2023-05-14T00:55:16.759Z,9.35
2023-05-14T00:57:43.631Z,9.28
2023-05-14T01:00:11.076Z,9.28
2023-05-14T01:02:38.297Z,9.32
2023-05-14T01:05:05.362Z,9.36
2023-05-14T01:08:01.317Z,9.38
2023-05-14T01:10:48.279Z,9.45
2023-05-14T01:13:38.251Z,9.51
2023-05-14T01:16:05.542Z,9.59
2023-05-14T01:18:32.829Z,9.67
2023-05-14T01:20:59.821Z,9.73
2023-05-14T01:23:26.774Z,9.81
2023-05-14T01:25:53.735Z,9.85
2023-05-14T01:28:24.337Z,9.88
2023-05-14T01:30:59.147Z,9.93
2023-05-14T01:33:27.794Z,9.94
2023-05-14T01:35:54.895Z,9.94
2023-05-14T01:38:21.992Z,9.93
2023-05-14T01:40:49.123Z,9.94
2023-05-14T01:43:16.718Z,9.99
2023-05-14T01:45:44.253Z,10.06
2023-05-14T01:48:11.452Z,10.06
2023-05-14T01:50:38.728Z,10.10
2023-05-14T01:53:05.848Z,10.13
2023-05-14T01:55:32.852Z,10.15
2023-05-14T01:57:59.936Z,10.20
2023-05-14T02:00:27.063Z,10.29
2023-05-14T02:02:54.256Z,10.33
2023-05-14T02:05:21.938Z,10.32
2023-05-14T02:07:49.149Z,10.32
2023-05-14T02:10:16.091Z,10.32
2023-05-14T02:12:43.177Z,10.32
2023-05-14T02:15:11.486Z,10.39
2023-05-14T02:17:38.706Z,10.42
2023-05-14T02:20:06.642Z,10.43
2023-05-14T02:22:33.801Z,10.35
2023-05-14T02:25:01.342Z,10.30
2023-05-14T02:27:28.363Z,10.24
2023-05-14T02:29:56.911Z,10.23
2023-05-14T02:32:23.886Z,10.21
2023-05-14T02:34:51.084Z,10.26
2023-05-14T02:37:18.276Z,10.32
2023-05-14T02:39:45.077Z,10.37
2023-05-14T02:42:12.063Z,10.41
2023-05-14T02:44:39.129Z,10.40
2023-05-14T02:47:06.516Z,10.34
2023-05-14T02:49:33.751Z,10.29
2023-05-14T02:52:01.506Z,10.30
2023-05-14T02:54:28.659Z,10.35
2023-05-14T02:56:55.701Z,10.35
2023-05-14T02:59:24.493Z,10.41
2023-05-14T03:01:51.662Z,10.47
2023-05-14T03:04:19.286Z,10.40
2023-05-14T03:06:46.416Z,10.37
2023-05-14T03:09:13.480Z,10.39
2023-05-14T03:11:40.368Z,10.36
2023-05-14T03:14:07.570Z,10.34
2023-05-14T03:16:34.589Z,10.36
2023-05-14T03:19:01.643Z,10.34
2023-05-14T03:21:28.562Z,10.35
2023-05-14T03:23:55.582Z,10.34
2023-05-14T03:26:22.581Z,10.33
2023-05-14T03:28:50.739Z,10.33
2023-05-14T03:31:17.763Z,10.34
2023-05-14T03:33:44.921Z,10.33
2023-05-14T03:36:11.969Z,10.31
2023-05-14T03:38:38.796Z,10.30
2023-05-14T03:41:05.806Z,10.28
2023-05-14T03:43:32.728Z,10.26
2023-05-14T03:46:00.412Z,10.26
2023-05-14T03:48:27.292Z,10.23
2023-05-14T03:50:54.424Z,10.23
2023-05-14T03:53:21.493Z,10.18
2023-05-14T03:55:48.415Z,10.15
2023-05-14T03:58:15.449Z,10.15
2023-05-14T04:00:43.109Z,10.13
2023-05-14T04:03:10.393Z,10.17
2023-05-14T04:05:37.299Z,10.23
2023-05-14T04:08:04.038Z,10.27
2023-05-14T04:10:32.321Z,10.30
2023-05-14T04:12:59.228Z,10.35
2023-05-14T04:15:26.025Z,10.36
2023-05-14T04:17:52.848Z,10.41
2023-05-14T04:20:19.692Z,10.47
2023-05-14T04:22:46.640Z,10.52
2023-05-14T04:25:13.565Z,10.52
2023-05-14T04:27:40.535Z,10.56
2023-05-14T04:30:08.757Z,10.58
2023-05-14T04:32:35.684Z,10.63
2023-05-14T04:35:04.544Z,10.64
2023-05-14T04:37:31.916Z,10.61
2023-05-14T04:39:58.728Z,10.61
2023-05-14T04:42:25.800Z,10.59
2023-05-14T04:44:52.892Z,10.59
2023-05-14T04:47:21.473Z,10.59
2023-05-14T04:49:48.697Z,10.58
2023-05-14T04:52:15.489Z,10.59
2023-05-14T04:54:42.311Z,10.64
2023-05-14T04:57:09.348Z,10.61
2023-05-14T04:59:36.697Z,10.67
2023-05-14T05:02:03.655Z,10.72
2023-05-14T05:04:30.748Z,10.77
2023-05-14T05:06:57.630Z,10.81
2023-05-14T05:09:24.501Z,10.84
2023-05-14T05:11:51.605Z,10.92
2023-05-14T05:14:18.426Z,10.96
2023-05-14T05:16:45.331Z,11.04
2023-05-14T05:19:12.388Z,11.08
2023-05-14T05:21:41.239Z,11.19
2023-05-14T05:24:08.605Z,11.23
2023-05-14T05:26:38.357Z,11.21
2023-05-14T05:29:05.506Z,11.17
2023-05-14T05:31:32.670Z,11.19
2023-05-14T05:33:59.979Z,11.20
2023-05-14T05:36:26.848Z,11.22
2023-05-14T05:38:53.883Z,11.27
2023-05-14T05:41:20.671Z,11.37
2023-05-14T05:43:47.603Z,11.55
2023-05-14T05:46:14.423Z,11.71
2023-05-14T05:48:41.421Z,11.87
2023-05-14T05:51:08.241Z,12.09
2023-05-14T05:53:35.057Z,12.33
2023-05-14T05:56:02.049Z,12.58
2023-05-14T05:58:29.156Z,12.83
2023-05-14T06:00:58.062Z,13.01
2023-05-14T06:03:25.187Z,13.19
2023-05-14T06:05:53.040Z,13.36
2023-05-14T06:08:19.926Z,13.50
2023-05-14T06:10:47.712Z,13.68
2023-05-14T06:13:14.653Z,13.89
2023-05-14T06:15:41.617Z,14.01
2023-05-14T06:18:08.646Z,14.19
2023-05-14T06:20:35.573Z,14.37
2023-05-14T06:23:02.872Z,14.55
2023-05-14T06:25:29.773Z,14.68
2023-05-14T06:27:56.767Z,14.91
2023-05-14T06:30:23.776Z,15.16
2023-05-14T06:32:52.110Z,15.47
2023-05-14T06:35:19.339Z,15.68
2023-05-14T06:37:46.332Z,15.97
2023-05-14T06:40:16.038Z,16.22
2023-05-14T06:42:42.898Z,16.47
2023-05-14T06:45:10.052Z,16.65
2023-05-14T06:47:37.147Z,17.03
2023-05-14T06:50:04.304Z,17.38
2023-05-14T06:52:31.158Z,17.63
2023-05-14T06:54:58.014Z,18.08
2023-05-14T06:57:25.028Z,18.58
2023-05-14T06:59:52.302Z,19.01
2023-05-14T07:02:19.201Z,19.52
2023-05-14T07:04:46.867Z,19.98
2023-05-14T07:07:15.591Z,20.52
2023-05-14T07:09:42.462Z,21.02
2023-05-14T07:12:09.457Z,21.47
2023-05-14T07:14:36.455Z,21.42
2023-05-14T07:17:03.561Z,21.12
2023-05-14T07:19:30.508Z,20.71
2023-05-14T07:21:58.152Z,20.35
2023-05-14T07:24:25.158Z,19.87
2023-05-14T07:26:52.154Z,19.45
2023-05-14T07:29:19.062Z,19.16
2023-05-14T07:31:46.064Z,18.85
2023-05-14T07:34:13.091Z,18.55
2023-05-14T07:36:40.037Z,18.39
2023-05-14T07:39:07.111Z,18.40
2023-05-14T07:41:34.003Z,18.37
2023-05-14T07:44:00.943Z,18.56
2023-05-14T07:46:27.748Z,18.86
2023-05-14T07:48:54.735Z,19.44
2023-05-14T07:51:21.602Z,20.72
2023-05-14T07:53:48.684Z,22.56
2023-05-14T07:56:15.626Z,23.66
2023-05-14T07:58:42.547Z,23.87
2023-05-14T08:01:09.509Z,23.27
2023-05-14T08:03:36.742Z,22.28
2023-05-14T08:06:04.609Z,21.49
2023-05-14T08:08:31.677Z,21.04
2023-05-14T08:10:58.621Z,23.14
2023-05-14T08:13:25.575Z,23.44
2023-05-14T08:15:52.938Z,23.19
2023-05-14T08:18:19.807Z,22.19
2023-05-14T08:20:47.162Z,21.33
2023-05-14T08:23:14.174Z,20.54
2023-05-14T08:25:41.285Z,20.04
2023-05-14T08:28:08.306Z,19.68
2023-05-14T08:30:35.279Z,19.47
2023-05-14T08:33:02.129Z,19.13
2023-05-14T08:35:28.996Z,18.92
2023-05-14T08:37:57.385Z,18.94
2023-05-14T08:40:24.387Z,19.22
2023-05-14T08:42:51.754Z,19.76
2023-05-14T08:45:20.527Z,20.14
2023-05-14T08:47:51.052Z,20.79
2023-05-14T08:50:22.772Z,21.41
2023-05-14T08:52:50.654Z,21.54
2023-05-14T08:55:17.630Z,21.37
2023-05-14T08:57:44.672Z,21.39
2023-05-14T09:00:12.175Z,21.34
2023-05-14T09:02:42.629Z,21.50
2023-05-14T09:05:09.938Z,21.77
2023-05-14T09:07:36.943Z,21.75
2023-05-14T09:10:04.221Z,22.37
2023-05-14T09:12:31.581Z,24.91
2023-05-14T09:14:58.462Z,27.13
2023-05-14T09:17:26.698Z,28.94
2023-05-14T09:19:53.831Z,28.00
2023-05-14T09:22:21.082Z,27.05
2023-05-14T09:25:05.254Z,26.50
2023-05-14T09:27:33.008Z,26.84
2023-05-14T09:30:11.253Z,26.64
2023-05-14T09:32:44.367Z,25.58
2023-05-14T09:35:18.065Z,25.28
2023-05-14T09:37:46.659Z,25.30
2023-05-14T09:40:14.691Z,25.22
2023-05-14T09:42:41.799Z,25.36
2023-05-14T09:45:09.727Z,25.42
2023-05-14T09:47:37.606Z,25.67
2023-05-14T09:50:05.455Z,25.16
2023-05-14T09:52:32.301Z,24.81
2023-05-14T09:54:59.261Z,24.71
2023-05-14T09:57:27.096Z,24.71
2023-05-14T09:59:54.414Z,24.79
2023-05-14T10:02:23.944Z,25.60
2023-05-14T10:04:52.655Z,26.05
2023-05-14T10:07:24.095Z,26.30
2023-05-14T10:09:53.959Z,25.91
2023-05-14T10:12:22.673Z,24.80
2023-05-14T10:14:53.412Z,24.02
2023-05-14T10:17:22.045Z,23.44
2023-05-14T10:19:54.438Z,21.80
2023-05-14T10:22:24.228Z,20.48
2023-05-14T10:24:54.385Z,19.74
2023-05-14T10:27:21.797Z,19.30
2023-05-14T10:29:55.944Z,18.96
2023-05-14T10:32:26.689Z,18.76
2023-05-14T10:34:54.080Z,18.72
2023-05-14T10:37:21.776Z,18.76
2023-05-14T10:39:51.622Z,18.72
2023-05-14T10:42:20.290Z,18.63
2023-05-14T10:44:51.237Z,18.87
2023-05-14T10:47:18.494Z,19.00
2023-05-14T10:49:49.333Z,19.18
2023-05-14T10:52:18.881Z,19.20
2023-05-14T10:55:01.876Z,19.54
2023-05-14T10:57:31.918Z,19.90
2023-05-14T11:00:00.414Z,20.06
2023-05-14T11:02:37.716Z,20.39
2023-05-14T11:05:09.560Z,20.73
2023-05-14T11:07:38.334Z,20.86
2023-05-14T11:10:07.004Z,20.82
2023-05-14T11:12:38.248Z,20.80
2023-05-14T11:15:07.903Z,20.73
2023-05-14T11:17:35.675Z,20.73
2023-05-14T11:20:02.581Z,20.62
2023-05-14T11:22:29.697Z,20.66
2023-05-14T11:24:56.648Z,20.56
2023-05-14T11:27:24.209Z,20.42
2023-05-14T11:29:51.122Z,20.34
2023-05-14T11:32:18.861Z,20.36
2023-05-14T11:34:46.234Z,20.37
2023-05-14T11:37:15.220Z,20.41
2023-05-14T11:40:10.274Z,20.17
2023-05-14T11:42:37.423Z,20.02
2023-05-14T11:45:04.999Z,20.14
2023-05-14T11:47:32.253Z,20.15
2023-05-14T11:49:59.857Z,20.25
2023-05-14T11:52:26.714Z,20.38
2023-05-14T11:54:53.439Z,20.58
2023-05-14T11:57:21.157Z,20.79
2023-05-14T11:59:58.874Z,20.99
2023-05-14T12:02:28.497Z,20.59
2023-05-14T12:04:55.511Z,20.59
2023-05-14T12:07:22.620Z,20.82
2023-05-14T12:09:50.801Z,21.13
2023-05-14T12:12:21.808Z,20.89
2023-05-14T12:14:50.743Z,20.62
2023-05-14T12:17:22.193Z,20.45
2023-05-14T12:19:50.937Z,20.53
2023-05-14T12:22:22.628Z,20.42
2023-05-14T12:24:59.324Z,20.49
2023-05-14T12:27:27.802Z,20.65
2023-05-14T12:30:19.946Z,20.96
2023-05-14T12:32:49.115Z,21.16
2023-05-14T12:35:16.229Z,21.30
2023-05-14T12:37:43.250Z,21.49
2023-05-14T12:40:10.416Z,21.82
2023-05-14T12:42:37.710Z,22.01
2023-05-14T12:45:08.163Z,21.99
2023-05-14T12:47:36.523Z,21.72
2023-05-14T12:50:03.565Z,21.30
2023-05-14T12:52:37.603Z,21.06
2023-05-14T12:55:10.213Z,20.91
2023-05-14T12:57:39.621Z,21.14
2023-05-14T13:00:10.836Z,21.25
2023-05-14T13:02:42.222Z,21.26
2023-05-14T13:05:10.812Z,21.11
2023-05-14T13:07:37.746Z,20.86
2023-05-14T13:10:08.490Z,21.02
2023-05-14T13:12:35.616Z,20.96
2023-05-14T13:15:02.556Z,20.93
2023-05-14T13:17:29.521Z,21.01
2023-05-14T13:19:56.517Z,21.02
2023-05-14T13:22:23.505Z,21.30
2023-05-14T13:24:50.729Z,21.59
2023-05-14T13:27:17.621Z,21.85
2023-05-14T13:29:44.531Z,21.98
2023-05-14T13:32:11.411Z,21.98
2023-05-14T13:34:38.356Z,22.03
2023-05-14T13:37:05.329Z,21.95
2023-05-14T13:39:32.188Z,22.00
2023-05-14T13:41:59.219Z,21.97
2023-05-14T13:44:26.097Z,21.75
2023-05-14T13:46:53.086Z,21.57
2023-05-14T13:49:20.066Z,21.16
2023-05-14T13:51:47.024Z,20.86
2023-05-14T13:54:13.991Z,20.66
2023-05-14T13:56:40.892Z,20.48
2023-05-14T13:59:07.922Z,20.76
2023-05-14T14:01:34.979Z,21.21
2023-05-14T14:04:01.914Z,21.73
2023-05-14T14:06:31.303Z,22.09
2023-05-14T14:08:58.309Z,22.54
2023-05-14T14:11:25.074Z,22.93
2023-05-14T14:13:52.052Z,23.28
2023-05-14T14:16:19.189Z,22.98
2023-05-14T14:18:46.297Z,22.48
2023-05-14T14:21:13.219Z,21.86
2023-05-14T14:23:40.240Z,21.16
2023-05-14T14:26:07.669Z,20.54
2023-05-14T14:28:34.855Z,20.38
2023-05-14T14:31:02.615Z,19.94
2023-05-14T14:33:31.467Z,19.24
2023-05-14T14:35:58.466Z,18.65
2023-05-14T14:38:25.360Z,18.10
2023-05-14T14:40:52.699Z,17.87
2023-05-14T14:43:19.567Z,17.67
2023-05-14T14:45:48.883Z,17.39
2023-05-14T14:48:27.174Z,17.18
2023-05-14T14:50:54.821Z,17.25
2023-05-14T14:53:21.889Z,17.28
2023-05-14T14:55:49.456Z,17.18
2023-05-14T14:58:16.406Z,16.87
2023-05-14T15:00:43.590Z,16.65
2023-05-14T15:03:10.702Z,16.47
2023-05-14T15:05:38.218Z,16.27
2023-05-14T15:08:05.503Z,16.30
2023-05-14T15:10:32.645Z,16.47
2023-05-14T15:12:59.700Z,16.12
2023-05-14T15:15:26.568Z,15.83
2023-05-14T15:17:53.598Z,15.97
2023-05-14T15:20:20.551Z,16.05
2023-05-14T15:22:47.469Z,15.89
2023-05-14T15:25:14.393Z,15.91
2023-05-14T15:27:41.229Z,16.04
2023-05-14T15:30:08.618Z,16.11
2023-05-14T15:32:35.611Z,16.24
2023-05-14T15:35:02.739Z,16.31
2023-05-14T15:37:42.776Z,16.18
2023-05-14T15:40:10.656Z,16.01
2023-05-14T15:42:38.878Z,16.02
2023-05-14T15:45:06.109Z,16.00
2023-05-14T15:47:33.038Z,15.85
2023-05-14T15:50:00.251Z,15.95
2023-05-14T15:52:27.105Z,15.93
2023-05-14T15:54:56.027Z,15.89
2023-05-14T15:57:23.283Z,15.64
2023-05-14T15:59:50.363Z,15.46
2023-05-14T16:02:17.332Z,15.50
2023-05-14T16:04:47.046Z,15.56
2023-05-14T16:07:13.996Z,15.29
2023-05-14T16:09:40.908Z,14.95
2023-05-14T16:12:08.120Z,14.76
2023-05-14T16:14:35.378Z,14.77
2023-05-14T16:17:02.264Z,14.55
2023-05-14T16:19:29.228Z,14.46
2023-05-14T16:21:56.226Z,14.24
2023-05-14T16:24:23.005Z,13.96
2023-05-14T16:26:49.824Z,13.77
2023-05-14T16:29:16.793Z,13.68
2023-05-14T16:31:43.855Z,13.66
2023-05-14T16:34:11.024Z,13.62
2023-05-14T16:36:38.088Z,13.62
2023-05-14T16:39:07.708Z,13.55
2023-05-14T16:41:36.202Z,13.48
2023-05-14T16:44:03.680Z,13.31
2023-05-14T16:46:31.403Z,13.07
2023-05-14T16:48:58.363Z,12.89
2023-05-14T16:51:25.309Z,12.76
2023-05-14T16:53:52.451Z,12.63
2023-05-14T16:56:21.781Z,12.60
2023-05-14T16:58:48.826Z,12.56
2023-05-14T17:01:16.056Z,12.42
2023-05-14T17:03:43.704Z,12.34
2023-05-14T17:06:10.739Z,12.24
2023-05-14T17:08:37.652Z,12.17
2023-05-14T17:11:06.105Z,12.14
2023-05-14T17:13:33.471Z,12.13
2023-05-14T17:16:03.520Z,12.05
2023-05-14T17:18:30.961Z,12.04
2023-05-14T17:20:57.737Z,12.02
2023-05-14T17:23:24.664Z,12.02
2023-05-14T17:25:51.579Z,12.01
2023-05-14T17:28:18.518Z,11.95
2023-05-14T17:30:45.391Z,11.88
2023-05-14T17:33:12.389Z,11.93
2023-05-14T17:35:39.406Z,11.93
2023-05-14T17:38:06.377Z,11.92
2023-05-14T17:40:33.937Z,11.93
2023-05-14T17:43:00.969Z,12.00
2023-05-14T17:45:29.508Z,12.12
2023-05-14T17:47:59.476Z,12.05
2023-05-14T17:50:26.395Z,12.03
2023-05-14T17:52:54.401Z,11.96
2023-05-14T17:55:22.554Z,11.84
2023-05-14T17:57:49.966Z,11.65
2023-05-14T18:00:17.139Z,11.55
2023-05-14T18:02:44.069Z,11.46
2023-05-14T18:05:11.017Z,11.47
2023-05-14T18:07:37.846Z,11.40
2023-05-14T18:10:05.130Z,11.34
2023-05-14T18:12:32.038Z,11.34
2023-05-14T18:14:59.000Z,11.26
2023-05-14T18:17:25.906Z,11.19
2023-05-14T18:19:52.734Z,11.19
2023-05-14T18:22:21.980Z,11.13
2023-05-14T18:24:48.795Z,11.10
2023-05-14T18:27:15.810Z,11.04
2023-05-14T18:29:43.678Z,11.04
2023-05-14T18:32:10.563Z,11.09
2023-05-14T18:34:37.601Z,11.19
2023-05-14T18:37:04.616Z,11.23
2023-05-14T18:39:31.477Z,11.24
2023-05-14T18:41:58.383Z,11.29
2023-05-14T18:44:25.159Z,11.35
2023-05-14T18:46:52.688Z,11.39
2023-05-14T18:49:19.701Z,11.34
2023-05-14T18:51:46.572Z,11.37
2023-05-14T18:54:13.573Z,11.37
2023-05-14T18:56:45.511Z,11.40
2023-05-14T18:59:14.677Z,11.41
2023-05-14T19:01:41.670Z,11.38
2023-05-14T19:04:08.702Z,11.26
2023-05-14T19:06:36.489Z,11.17
2023-05-14T19:09:04.675Z,11.10
2023-05-14T19:11:31.492Z,11.03
2023-05-14T19:13:58.314Z,10.95
2023-05-14T19:16:26.498Z,10.88
2023-05-14T19:18:53.647Z,10.83
2023-05-14T19:21:20.581Z,10.85
2023-05-14T19:23:47.755Z,10.84
2023-05-14T19:26:14.557Z,10.87
2023-05-14T19:28:42.174Z,10.90
2023-05-14T19:31:08.994Z,10.94
2023-05-14T19:33:35.856Z,11.00
2023-05-14T19:36:02.682Z,10.99
2023-05-14T19:38:29.885Z,10.93
2023-05-14T19:40:57.310Z,10.88
2023-05-14T19:43:25.719Z,10.87
2023-05-14T19:45:52.769Z,10.85
2023-05-14T19:48:19.824Z,10.72
2023-05-14T19:50:47.551Z,10.58
2023-05-14T19:53:14.687Z,10.45
2023-05-14T19:55:41.925Z,10.26
2023-05-14T19:58:09.044Z,10.18
2023-05-14T20:00:37.219Z,10.17
2023-05-14T20:03:05.841Z,10.19
2023-05-14T20:05:34.707Z,10.23
2023-05-14T20:08:02.194Z,10.27
2023-05-14T20:10:30.774Z,10.22
2023-05-14T20:12:57.848Z,10.21
2023-05-14T20:15:24.616Z,10.22
2023-05-14T20:17:51.663Z,10.22
2023-05-14T20:20:18.952Z,10.26
2023-05-14T20:22:46.218Z,10.33
2023-05-14T20:25:13.841Z,10.41
2023-05-14T20:27:41.414Z,10.45
2023-05-14T20:30:08.767Z,10.50
2023-05-14T20:32:35.757Z,10.49
2023-05-14T20:35:03.862Z,10.26
2023-05-14T20:37:32.929Z,9.84
2023-05-14T20:40:00.160Z,9.46
2023-05-14T20:42:27.634Z,9.22
2023-05-14T20:44:54.634Z,9.10
2023-05-14T20:47:24.409Z,9.00
2023-05-14T20:49:51.523Z,8.95
2023-05-14T20:52:18.918Z,8.95
2023-05-14T20:54:46.383Z,8.90
2023-05-14T20:57:15.430Z,8.86
2023-05-14T20:59:43.063Z,8.81
2023-05-14T21:02:10.132Z,8.79
2023-05-14T21:04:37.485Z,8.82
2023-05-14T21:07:05.343Z,8.83
2023-05-14T21:09:32.193Z,8.86
2023-05-14T21:11:59.226Z,8.83
2023-05-14T21:14:26.139Z,8.79
2023-05-14T21:16:52.974Z,8.86
2023-05-14T21:19:20.129Z,8.86
2023-05-14T21:21:47.528Z,8.86
2023-05-14T21:24:16.892Z,8.84
2023-05-14T21:26:44.239Z,8.83
2023-05-14T21:29:11.524Z,8.80
2023-05-14T21:31:38.501Z,8.78
2023-05-14T21:34:05.418Z,8.69
2023-05-14T21:36:32.317Z,8.76
2023-05-14T21:38:59.240Z,8.69
2023-05-14T21:41:26.067Z,8.63
2023-05-14T21:43:53.070Z,8.59
2023-05-14T21:46:19.981Z,8.57
2023-05-14T21:48:47.126Z,8.54
2023-05-14T21:51:14.010Z,8.52
2023-05-14T21:53:41.074Z,8.52
2023-05-14T21:56:08.419Z,8.51
2023-05-14T21:58:36.086Z,8.52
2023-05-14T22:01:03.155Z,8.48
2023-05-14T22:03:30.087Z,8.44
2023-05-14T22:05:57.489Z,8.43
2023-05-14T22:08:24.402Z,8.44
2023-05-14T22:10:51.305Z,8.44
2023-05-14T22:13:18.110Z,8.40
2023-05-14T22:15:45.110Z,8.37
2023-05-14T22:18:13.113Z,8.29
2023-05-14T22:20:40.269Z,8.25
2023-05-14T22:23:07.335Z,8.14
2023-05-14T22:25:34.391Z,8.10
2023-05-14T22:28:01.266Z,8.07
2023-05-14T22:30:28.141Z,8.10
2023-05-14T22:32:55.093Z,8.12
2023-05-14T22:35:22.288Z,8.14
2023-05-14T22:37:49.293Z,8.14
2023-05-14T22:40:16.283Z,8.14
2023-05-14T22:42:43.309Z,8.14
2023-05-14T22:45:10.712Z,8.12
2023-05-14T22:47:38.671Z,8.17
2023-05-14T22:50:11.558Z,8.20
2023-05-14T22:52:40.203Z,8.24
2023-05-14T22:55:08.018Z,8.25
2023-05-14T22:57:35.065Z,8.22
2023-05-14T23:00:01.947Z,8.26
2023-05-14T23:02:29.313Z,8.31
2023-05-14T23:04:56.284Z,8.37
2023-05-14T23:07:23.108Z,8.40
2023-05-14T23:09:49.909Z,8.48
2023-05-14T23:12:16.963Z,8.57
2023-05-14T23:14:43.831Z,8.67
2023-05-14T23:17:10.686Z,8.71
2023-05-14T23:19:37.698Z,8.73
2023-05-14T23:22:05.015Z,8.76
2023-05-14T23:24:31.782Z,8.75
2023-05-14T23:26:58.663Z,8.77
2023-05-14T23:29:25.625Z,8.82
2023-05-14T23:31:52.532Z,8.83
2023-05-14T23:34:19.424Z,8.85
2023-05-14T23:36:46.207Z,8.80
2023-05-14T23:39:13.018Z,8.73
2023-05-14T23:41:39.866Z,8.71
2023-05-14T23:44:07.390Z,8.70
2023-05-14T23:46:34.673Z,8.69
2023-05-14T23:49:01.485Z,8.66
2023-05-14T23:51:28.542Z,8.68
2023-05-14T23:53:56.458Z,8.63
2023-05-14T23:56:24.716Z,8.59
2023-05-14T23:58:51.714Z,8.53
